^^
Meteo Knjazevac Station Historical Data
Daily Summary for September 28, 2022 Units:  Metric    English   Both
Daily Weekly Monthly Yearly Custom
  High: Low: Average:
Temperature: 12.9 °C 11.1 °C 12.1 °C
Dew Point: 12.7 °C 10.9 °C 11.7 °C
Humidity: 99% 95% 97%
Wind Speed: 10.9km/h 1.8km/h 6km/h
Wind Gust: 12.9km/h - -
Wind- - ENE
Pressure: 1008.4 hPa 1008 hPa -
Precipitation: 0 mm    
Historical Graphs
 
 
Tabular Data for September 28, 2022
Time Temperature Dew Point Pressure Wind Wind Speed Wind Gust Humidity Rainfall Rate (Hourly) solar Conditions
00:04 12.4 °C 12.3 °C 1008 hPa NNE 7.9 km/h 8.7 km/h 99% 0 mm 0 W/m2
00:09 12.7 °C 12.6 °C 1008 hPa NE 7.4 km/h 9.7 km/h 99% 0 mm 0 W/m2
00:14 12.8 °C 12.7 °C 1008 hPa NE 5.5 km/h 8 km/h 99% 0 mm 0 W/m2
00:19 12.9 °C 12.7 °C 1008 hPa ENE 4.8 km/h 6.4 km/h 99% 0 mm 0 W/m2
00:24 12.8 °C 12.7 °C 1008 hPa East 2.4 km/h 4.8 km/h 99% 0 mm 0 W/m2
00:29 12.8 °C 12.6 °C 1008 hPa NNE 1.8 km/h 3.2 km/h 99% 0 mm 0 W/m2
00:34 12.7 °C 12.6 °C 1008 hPa NNE 4 km/h 4 km/h 99% 0 mm 0 W/m2
00:39 12.7 °C 12.6 °C 1008 hPa East 4 km/h 6.4 km/h 98.9% 0 mm 0 W/m2
00:44 12.7 °C 12.5 °C 1008 hPa East 6 km/h 5 km/h 98.7% 0 mm 0 W/m2
00:49 12.7 °C 12.3 °C 1008 hPa East 9.8 km/h 8 km/h 98% 0 mm 0 W/m2
00:54 12.8 °C 12.5 °C 1008 hPa East 6.6 km/h 11.3 km/h 98% 0 mm 0 W/m2
00:59 12.8 °C 12.5 °C 1008 hPa ENE 3.1 km/h 8 km/h 98% 0 mm 0 W/m2
01:04 12.7 °C 12.4 °C 1008 hPa NE 3.2 km/h 4.8 km/h 98% 0 mm 0 W/m2
01:09 12.6 °C 12.3 °C 1008 hPa NE 6.4 km/h 5.5 km/h 98% 0 mm 0 W/m2
01:14 12.5 °C 12.2 °C 1008 hPa NE 6.9 km/h 9.7 km/h 98% 0 mm 0 W/m2
01:19 12.5 °C 12.2 °C 1008 hPa NE 8.9 km/h 8 km/h 98% 0 mm 0 W/m2
01:24 12.6 °C 12.2 °C 1008 hPa NE 8.5 km/h 11.3 km/h 97.3% 0 mm 0 W/m2
01:29 12.6 °C 12 °C 1008 hPa NE 6.8 km/h 11.3 km/h 96.1% 0 mm 0 W/m2
01:34 12.6 °C 12.1 °C 1008 hPa NE 6 km/h 8 km/h 96.9% 0 mm 0 W/m2
01:39 12.5 °C 12 °C 1008 hPa NE 8.7 km/h 8 km/h 96.9% 0 mm 0 W/m2
01:44 12.5 °C 11.9 °C 1008 hPa NE 8 km/h 11.3 km/h 96% 0 mm 0 W/m2
01:49 12.4 °C 11.8 °C 1008.4 hPa NE 9.7 km/h 9.7 km/h 96% 0 mm 0 W/m2
01:54 12.4 °C 11.8 °C 1008.4 hPa ENE 9.5 km/h 11.3 km/h 96% 0 mm 0 W/m2
01:59 12.4 °C 11.8 °C 1008.4 hPa East 10.1 km/h 11.3 km/h 96% 0 mm 0 W/m2
02:04 12.5 °C 11.9 °C 1008.4 hPa East 9.7 km/h 11.3 km/h 96% 0 mm 0 W/m2
02:09 12.6 °C 11.9 °C 1008.4 hPa East 10.9 km/h 11.3 km/h 95.5% 0 mm 0 W/m2
02:14 12.6 °C 11.8 °C 1008.4 hPa East 9.2 km/h 12.9 km/h 95% 0 mm 0 W/m2
02:19 12.6 °C 11.8 °C 1008.4 hPa East 7.7 km/h 11.3 km/h 95% 0 mm 0 W/m2
02:24 12.5 °C 11.7 °C 1008.4 hPa ENE 7.1 km/h 8 km/h 95% 0 mm 0 W/m2
02:29 12.5 °C 11.7 °C 1008.4 hPa NE 7.1 km/h 8 km/h 95% 0 mm 0 W/m2
02:34 12.4 °C 11.6 °C 1008.4 hPa NE 6.3 km/h 9.7 km/h 95% 0 mm 0 W/m2
02:39 12.4 °C 11.6 °C 1008.4 hPa ENE 6 km/h 8 km/h 95% 0 mm 0 W/m2
02:44 12.4 °C 11.6 °C 1008.4 hPa East 4.7 km/h 8 km/h 95% 0 mm 0 W/m2
02:49 12.3 °C 11.5 °C 1008.4 hPa East 4.5 km/h 4.8 km/h 95% 0 mm 0 W/m2
02:54 12.3 °C 11.5 °C 1008.4 hPa East 5.5 km/h 8 km/h 95% 0 mm 0 W/m2
02:59 12.2 °C 11.4 °C 1008.4 hPa East 2.4 km/h 8 km/h 95.2% 0 mm 0 W/m2
03:04 12 °C 11.3 °C 1008.4 hPa NE 4.2 km/h 3.2 km/h 95.7% 0 mm 0 W/m2
03:09 11.9 °C 11.3 °C 1008.4 hPa NE 4.8 km/h 4.8 km/h 96% 0 mm 0 W/m2
03:14 11.9 °C 11.3 °C 1008.4 hPa ENE 3.5 km/h 6.4 km/h 96% 0 mm 0 W/m2
03:19 11.8 °C 11.2 °C 1008.4 hPa NNE 3.9 km/h 4.8 km/h 96% 0 mm 0 W/m2
03:24 11.7 °C 11.1 °C 1008.4 hPa NNW 5.8 km/h 4.8 km/h 96% 0 mm 0 W/m2
03:29 11.7 °C 11.1 °C 1008.4 hPa ENE 6.3 km/h 8 km/h 96% 0 mm 0 W/m2
03:34 11.7 °C 11.1 °C 1008.4 hPa ESE 8.2 km/h 9.7 km/h 96% 0 mm 0 W/m2
03:39 11.8 °C 11.2 °C 1008.4 hPa SE 5.8 km/h 9.7 km/h 96% 0 mm 0 W/m2
03:44 11.7 °C 11.1 °C 1008.4 hPa ESE 3.5 km/h 9.7 km/h 96% 0 mm 0 W/m2
03:49 11.6 °C 10.9 °C 1008.4 hPa ENE 3.5 km/h 4.8 km/h 96% 0 mm 0 W/m2
03:54 11.4 °C 10.9 °C 1008.4 hPa East 3.4 km/h 3.2 km/h 97% 0 mm 0 W/m2
03:59 11.3 °C 11.1 °C 1008.4 hPa NE 3.2 km/h 3.2 km/h 98% 0 mm 0 W/m2
04:04 11.2 °C 10.9 °C 1008.4 hPa NNE 3.4 km/h 3.2 km/h 98% 0 mm 0 W/m2
04:09 11.2 °C 10.9 °C 1008.4 hPa NNE 3.4 km/h 3.2 km/h 98.5% 0 mm 0 W/m2
04:14 11.1 °C 10.9 °C 1008.4 hPa NNE 5.5 km/h 8 km/h 99% 0 mm 0 W/m2
04:19 11.1 °C 10.9 °C 1008.4 hPa NE 3.2 km/h 8 km/h 99% 0 mm 0 W/m2
04:24 11.1 °C 10.9 °C 1008.4 hPa ENE 5.1 km/h 4.8 km/h 99% 0 mm 0 W/m2
04:29 11.2 °C 11.1 °C 1008.4 hPa SE 7.2 km/h 8 km/h 99% 0 mm 0 W/m2
04:34 11.3 °C 11.2 °C 1008.4 hPa SE 7.7 km/h 9.7 km/h 98.9% 0 mm 0 W/m2
04:39 11.3 °C 11 °C 1008.4 hPa SSE 5.8 km/h 9.7 km/h 98% 0 mm 0 W/m2
04:44 11.2 °C 10.9 °C 1008.4 hPa SSE 8.4 km/h 11.3 km/h 98.3% 0 mm 0 W/m2
04:49 11.3 °C 11.2 °C 1008.4 hPa SSE 5.8 km/h 9.7 km/h 98.8% 0 mm 0 W/m2
04:54 11.4 °C 11.2 °C 1008.4 hPa SE 5.8 km/h 6.4 km/h 98% 0 mm 0 W/m2
04:59 11.6 °C 11.2 °C 1008.4 hPa ESE 5.6 km/h 8 km/h 98% 0 mm 0 W/m2
Knjazevac, Serbia
Compliments of Weather Underground - 2 mb